sensor_id;sensor_type;location;lat;lon;timestamp;P1;durP1;ratioP1;P2;durP2;ratioP2
15271;SDS011;7737;51.578;7.268;2022-12-20T00:02:10;2.35;;;1.77;;
15271;SDS011;7737;51.578;7.268;2022-12-20T00:04:36;2.45;;;1.75;;
15271;SDS011;7737;51.578;7.268;2022-12-20T00:07:03;3.47;;;2.15;;
15271;SDS011;7737;51.578;7.268;2022-12-20T00:09:30;3.15;;;1.70;;
15271;SDS011;7737;51.578;7.268;2022-12-20T00:11:56;3.00;;;1.77;;
15271;SDS011;7737;51.578;7.268;2022-12-20T00:14:24;3.10;;;2.00;;
15271;SDS011;7737;51.578;7.268;2022-12-20T00:16:51;3.22;;;1.75;;
15271;SDS011;7737;51.578;7.268;2022-12-20T00:19:20;1.95;;;1.73;;
15271;SDS011;7737;51.578;7.268;2022-12-20T00:21:47;2.95;;;1.90;;
15271;SDS011;7737;51.578;7.268;2022-12-20T00:24:14;3.25;;;1.50;;
15271;SDS011;7737;51.578;7.268;2022-12-20T00:26:40;4.45;;;1.90;;
15271;SDS011;7737;51.578;7.268;2022-12-20T00:29:07;2.30;;;1.60;;
15271;SDS011;7737;51.578;7.268;2022-12-20T00:31:37;2.88;;;1.80;;
15271;SDS011;7737;51.578;7.268;2022-12-20T00:34:03;2.72;;;1.60;;
15271;SDS011;7737;51.578;7.268;2022-12-20T00:36:32;2.35;;;1.63;;
15271;SDS011;7737;51.578;7.268;2022-12-20T00:38:59;2.97;;;1.88;;
15271;SDS011;7737;51.578;7.268;2022-12-20T00:41:27;2.63;;;1.70;;
15271;SDS011;7737;51.578;7.268;2022-12-20T00:43:55;1.88;;;1.50;;
15271;SDS011;7737;51.578;7.268;2022-12-20T00:46:22;2.35;;;1.65;;
15271;SDS011;7737;51.578;7.268;2022-12-20T00:48:50;1.85;;;1.40;;
15271;SDS011;7737;51.578;7.268;2022-12-20T00:51:18;2.05;;;1.50;;
15271;SDS011;7737;51.578;7.268;2022-12-20T00:53:45;2.40;;;1.60;;
15271;SDS011;7737;51.578;7.268;2022-12-20T00:56:12;1.63;;;1.30;;
15271;SDS011;7737;51.578;7.268;2022-12-20T00:58:40;2.78;;;1.55;;
15271;SDS011;7737;51.578;7.268;2022-12-20T01:01:13;2.03;;;1.50;;
15271;SDS011;7737;51.578;7.268;2022-12-20T01:03:41;1.83;;;1.55;;
15271;SDS011;7737;51.578;7.268;2022-12-20T01:06:10;2.20;;;1.40;;
15271;SDS011;7737;51.578;7.268;2022-12-20T01:08:37;2.88;;;1.45;;
15271;SDS011;7737;51.578;7.268;2022-12-20T01:11:04;2.35;;;1.30;;
15271;SDS011;7737;51.578;7.268;2022-12-20T01:13:34;2.78;;;1.40;;
15271;SDS011;7737;51.578;7.268;2022-12-20T01:16:03;2.65;;;1.50;;
15271;SDS011;7737;51.578;7.268;2022-12-20T01:18:31;2.60;;;1.48;;
15271;SDS011;7737;51.578;7.268;2022-12-20T01:21:02;2.00;;;1.60;;
15271;SDS011;7737;51.578;7.268;2022-12-20T01:23:30;2.85;;;1.58;;
15271;SDS011;7737;51.578;7.268;2022-12-20T01:25:57;2.40;;;1.50;;
15271;SDS011;7737;51.578;7.268;2022-12-20T01:28:24;3.78;;;1.58;;
15271;SDS011;7737;51.578;7.268;2022-12-20T01:30:51;2.53;;;1.58;;
15271;SDS011;7737;51.578;7.268;2022-12-20T01:33:18;2.58;;;1.40;;
15271;SDS011;7737;51.578;7.268;2022-12-20T01:35:53;2.42;;;1.77;;
15271;SDS011;7737;51.578;7.268;2022-12-20T01:38:20;2.25;;;1.45;;
15271;SDS011;7737;51.578;7.268;2022-12-20T01:40:48;2.40;;;1.42;;
15271;SDS011;7737;51.578;7.268;2022-12-20T01:43:15;2.85;;;1.73;;
15271;SDS011;7737;51.578;7.268;2022-12-20T01:45:44;3.13;;;1.45;;
15271;SDS011;7737;51.578;7.268;2022-12-20T01:48:10;2.05;;;1.80;;
15271;SDS011;7737;51.578;7.268;2022-12-20T01:50:40;1.70;;;1.58;;
15271;SDS011;7737;51.578;7.268;2022-12-20T01:53:06;2.00;;;1.38;;
15271;SDS011;7737;51.578;7.268;2022-12-20T01:55:34;2.10;;;1.50;;
15271;SDS011;7737;51.578;7.268;2022-12-20T01:58:04;3.40;;;1.50;;
15271;SDS011;7737;51.578;7.268;2022-12-20T02:00:32;2.72;;;1.60;;
15271;SDS011;7737;51.578;7.268;2022-12-20T02:03:00;2.03;;;1.33;;
15271;SDS011;7737;51.578;7.268;2022-12-20T02:05:32;1.88;;;1.45;;
15271;SDS011;7737;51.578;7.268;2022-12-20T02:08:00;3.25;;;1.83;;
15271;SDS011;7737;51.578;7.268;2022-12-20T02:10:28;2.88;;;1.60;;
15271;SDS011;7737;51.578;7.268;2022-12-20T02:13:06;2.15;;;1.65;;
15271;SDS011;7737;51.578;7.268;2022-12-20T02:15:39;3.17;;;1.60;;
15271;SDS011;7737;51.578;7.268;2022-12-20T02:18:16;1.77;;;1.60;;
15271;SDS011;7737;51.578;7.268;2022-12-20T02:20:53;2.63;;;1.85;;
15271;SDS011;7737;51.578;7.268;2022-12-20T02:29:54;2.40;;;1.50;;
15271;SDS011;7737;51.578;7.268;2022-12-20T02:32:27;1.70;;;1.38;;
15271;SDS011;7737;51.578;7.268;2022-12-20T02:34:58;2.67;;;1.48;;
15271;SDS011;7737;51.578;7.268;2022-12-20T02:37:25;2.40;;;1.52;;
15271;SDS011;7737;51.578;7.268;2022-12-20T02:39:51;4.57;;;1.88;;
15271;SDS011;7737;51.578;7.268;2022-12-20T02:42:18;2.67;;;1.65;;
15271;SDS011;7737;51.578;7.268;2022-12-20T02:44:49;2.63;;;1.60;;
15271;SDS011;7737;51.578;7.268;2022-12-20T02:47:38;2.03;;;1.50;;
15271;SDS011;7737;51.578;7.268;2022-12-20T02:50:07;3.28;;;1.90;;
15271;SDS011;7737;51.578;7.268;2022-12-20T02:52:35;2.70;;;1.60;;
15271;SDS011;7737;51.578;7.268;2022-12-20T02:55:03;2.35;;;1.60;;
15271;SDS011;7737;51.578;7.268;2022-12-20T02:57:32;3.40;;;1.95;;
15271;SDS011;7737;51.578;7.268;2022-12-20T03:00:07;3.72;;;1.50;;
15271;SDS011;7737;51.578;7.268;2022-12-20T03:02:35;4.43;;;2.00;;
15271;SDS011;7737;51.578;7.268;2022-12-20T03:05:23;4.70;;;1.90;;
15271;SDS011;7737;51.578;7.268;2022-12-20T03:07:51;2.83;;;1.80;;
15271;SDS011;7737;51.578;7.268;2022-12-20T03:10:18;3.35;;;1.73;;
15271;SDS011;7737;51.578;7.268;2022-12-20T03:12:45;2.45;;;1.77;;
15271;SDS011;7737;51.578;7.268;2022-12-20T03:15:12;3.05;;;2.13;;
15271;SDS011;7737;51.578;7.268;2022-12-20T03:17:40;3.35;;;1.70;;
15271;SDS011;7737;51.578;7.268;2022-12-20T03:20:07;4.65;;;2.05;;
15271;SDS011;7737;51.578;7.268;2022-12-20T03:22:35;2.45;;;1.90;;
15271;SDS011;7737;51.578;7.268;2022-12-20T03:25:02;3.33;;;1.77;;
15271;SDS011;7737;51.578;7.268;2022-12-20T03:27:29;3.67;;;2.50;;
15271;SDS011;7737;51.578;7.268;2022-12-20T03:29:56;4.57;;;2.33;;
15271;SDS011;7737;51.578;7.268;2022-12-20T03:32:22;2.78;;;1.58;;
15271;SDS011;7737;51.578;7.268;2022-12-20T03:34:50;4.15;;;2.10;;
15271;SDS011;7737;51.578;7.268;2022-12-20T03:37:16;2.05;;;1.85;;
15271;SDS011;7737;51.578;7.268;2022-12-20T03:39:43;2.38;;;2.17;;
15271;SDS011;7737;51.578;7.268;2022-12-20T03:42:09;2.88;;;2.15;;
15271;SDS011;7737;51.578;7.268;2022-12-20T03:44:36;3.05;;;2.10;;
15271;SDS011;7737;51.578;7.268;2022-12-20T03:47:03;3.25;;;2.13;;
15271;SDS011;7737;51.578;7.268;2022-12-20T03:49:30;2.88;;;2.15;;
15271;SDS011;7737;51.578;7.268;2022-12-20T03:51:57;3.08;;;2.40;;
15271;SDS011;7737;51.578;7.268;2022-12-20T03:54:24;3.10;;;2.42;;
15271;SDS011;7737;51.578;7.268;2022-12-20T03:56:50;4.18;;;2.25;;
15271;SDS011;7737;51.578;7.268;2022-12-20T03:59:17;2.80;;;2.50;;
15271;SDS011;7737;51.578;7.268;2022-12-20T04:01:43;4.03;;;2.28;;
15271;SDS011;7737;51.578;7.268;2022-12-20T04:04:11;3.05;;;2.30;;
15271;SDS011;7737;51.578;7.268;2022-12-20T04:06:39;3.80;;;2.47;;
15271;SDS011;7737;51.578;7.268;2022-12-20T04:09:07;3.60;;;2.20;;
15271;SDS011;7737;51.578;7.268;2022-12-20T04:11:34;2.25;;;2.05;;
15271;SDS011;7737;51.578;7.268;2022-12-20T04:14:00;3.38;;;2.30;;
15271;SDS011;7737;51.578;7.268;2022-12-20T04:16:27;2.60;;;2.40;;
15271;SDS011;7737;51.578;7.268;2022-12-20T04:18:55;3.67;;;2.53;;
15271;SDS011;7737;51.578;7.268;2022-12-20T04:21:21;3.30;;;2.25;;
15271;SDS011;7737;51.578;7.268;2022-12-20T04:23:49;4.72;;;2.67;;
15271;SDS011;7737;51.578;7.268;2022-12-20T04:26:17;5.07;;;2.38;;
15271;SDS011;7737;51.578;7.268;2022-12-20T04:28:44;3.10;;;2.58;;
15271;SDS011;7737;51.578;7.268;2022-12-20T04:31:11;5.13;;;2.80;;
15271;SDS011;7737;51.578;7.268;2022-12-20T04:33:37;3.53;;;2.50;;
15271;SDS011;7737;51.578;7.268;2022-12-20T04:36:04;3.80;;;2.42;;
15271;SDS011;7737;51.578;7.268;2022-12-20T04:38:31;4.55;;;2.67;;
15271;SDS011;7737;51.578;7.268;2022-12-20T04:40:58;4.68;;;2.90;;
15271;SDS011;7737;51.578;7.268;2022-12-20T04:43:26;4.10;;;2.85;;
15271;SDS011;7737;51.578;7.268;2022-12-20T04:45:53;3.67;;;2.80;;
15271;SDS011;7737;51.578;7.268;2022-12-20T04:48:21;3.40;;;2.55;;
15271;SDS011;7737;51.578;7.268;2022-12-20T04:50:51;4.88;;;3.13;;
15271;SDS011;7737;51.578;7.268;2022-12-20T04:53:18;2.92;;;2.47;;
15271;SDS011;7737;51.578;7.268;2022-12-20T04:56:02;4.07;;;2.83;;
15271;SDS011;7737;51.578;7.268;2022-12-20T04:58:30;4.25;;;2.65;;
15271;SDS011;7737;51.578;7.268;2022-12-20T05:00:57;2.55;;;2.30;;
15271;SDS011;7737;51.578;7.268;2022-12-20T05:03:24;3.13;;;2.60;;
15271;SDS011;7737;51.578;7.268;2022-12-20T05:05:51;4.10;;;3.00;;
15271;SDS011;7737;51.578;7.268;2022-12-20T05:08:18;3.15;;;2.60;;
15271;SDS011;7737;51.578;7.268;2022-12-20T05:10:45;4.13;;;2.75;;
15271;SDS011;7737;51.578;7.268;2022-12-20T05:13:12;2.58;;;2.10;;
15271;SDS011;7737;51.578;7.268;2022-12-20T05:15:40;3.08;;;2.60;;
15271;SDS011;7737;51.578;7.268;2022-12-20T05:18:07;4.35;;;2.47;;
15271;SDS011;7737;51.578;7.268;2022-12-20T05:20:33;3.60;;;2.22;;
15271;SDS011;7737;51.578;7.268;2022-12-20T05:23:00;2.78;;;2.50;;
15271;SDS011;7737;51.578;7.268;2022-12-20T05:25:44;3.90;;;2.20;;
15271;SDS011;7737;51.578;7.268;2022-12-20T05:28:30;5.25;;;3.00;;
15271;SDS011;7737;51.578;7.268;2022-12-20T05:30:58;3.65;;;2.20;;
15271;SDS011;7737;51.578;7.268;2022-12-20T05:33:25;3.75;;;2.80;;
15271;SDS011;7737;51.578;7.268;2022-12-20T05:35:52;4.20;;;2.65;;
15271;SDS011;7737;51.578;7.268;2022-12-20T05:38:19;2.67;;;2.40;;
15271;SDS011;7737;51.578;7.268;2022-12-20T05:40:46;5.25;;;2.35;;
15271;SDS011;7737;51.578;7.268;2022-12-20T05:43:14;4.60;;;2.45;;
15271;SDS011;7737;51.578;7.268;2022-12-20T05:45:43;2.92;;;2.40;;
15271;SDS011;7737;51.578;7.268;2022-12-20T05:48:12;4.88;;;2.60;;
15271;SDS011;7737;51.578;7.268;2022-12-20T05:50:38;3.90;;;2.40;;
15271;SDS011;7737;51.578;7.268;2022-12-20T05:53:05;3.70;;;2.35;;
15271;SDS011;7737;51.578;7.268;2022-12-20T05:55:31;4.10;;;2.92;;
15271;SDS011;7737;51.578;7.268;2022-12-20T05:57:58;4.05;;;3.10;;
15271;SDS011;7737;51.578;7.268;2022-12-20T06:00:24;3.33;;;2.45;;
15271;SDS011;7737;51.578;7.268;2022-12-20T06:02:51;3.70;;;2.70;;
15271;SDS011;7737;51.578;7.268;2022-12-20T06:05:18;4.60;;;2.65;;
15271;SDS011;7737;51.578;7.268;2022-12-20T06:07:45;6.13;;;2.65;;
15271;SDS011;7737;51.578;7.268;2022-12-20T06:10:13;4.75;;;2.75;;
15271;SDS011;7737;51.578;7.268;2022-12-20T06:12:39;4.03;;;2.50;;
15271;SDS011;7737;51.578;7.268;2022-12-20T06:15:06;6.13;;;3.20;;
15271;SDS011;7737;51.578;7.268;2022-12-20T06:17:34;3.95;;;2.50;;
15271;SDS011;7737;51.578;7.268;2022-12-20T06:20:01;3.95;;;2.60;;
15271;SDS011;7737;51.578;7.268;2022-12-20T06:22:30;3.33;;;2.58;;
15271;SDS011;7737;51.578;7.268;2022-12-20T06:24:57;4.50;;;2.72;;
15271;SDS011;7737;51.578;7.268;2022-12-20T06:27:23;4.47;;;2.45;;
15271;SDS011;7737;51.578;7.268;2022-12-20T06:29:50;4.18;;;2.42;;
15271;SDS011;7737;51.578;7.268;2022-12-20T06:32:18;4.18;;;2.60;;
15271;SDS011;7737;51.578;7.268;2022-12-20T06:34:45;3.17;;;2.38;;
15271;SDS011;7737;51.578;7.268;2022-12-20T06:37:12;3.72;;;2.60;;
15271;SDS011;7737;51.578;7.268;2022-12-20T06:39:39;2.75;;;2.50;;
15271;SDS011;7737;51.578;7.268;2022-12-20T06:42:06;4.10;;;2.55;;
15271;SDS011;7737;51.578;7.268;2022-12-20T06:44:32;3.80;;;2.60;;
15271;SDS011;7737;51.578;7.268;2022-12-20T06:47:00;4.10;;;2.60;;
15271;SDS011;7737;51.578;7.268;2022-12-20T06:49:26;4.10;;;2.70;;
15271;SDS011;7737;51.578;7.268;2022-12-20T06:51:53;2.65;;;2.05;;
15271;SDS011;7737;51.578;7.268;2022-12-20T06:54:20;4.45;;;2.78;;
15271;SDS011;7737;51.578;7.268;2022-12-20T06:56:48;5.25;;;2.55;;
15271;SDS011;7737;51.578;7.268;2022-12-20T06:59:14;4.30;;;2.60;;
15271;SDS011;7737;51.578;7.268;2022-12-20T07:01:41;4.20;;;2.50;;
15271;SDS011;7737;51.578;7.268;2022-12-20T07:04:08;4.80;;;2.45;;
15271;SDS011;7737;51.578;7.268;2022-12-20T07:06:35;4.07;;;2.47;;
15271;SDS011;7737;51.578;7.268;2022-12-20T07:09:02;4.22;;;2.58;;
15271;SDS011;7737;51.578;7.268;2022-12-20T07:11:28;4.97;;;2.67;;
15271;SDS011;7737;51.578;7.268;2022-12-20T07:13:56;2.50;;;2.20;;
15271;SDS011;7737;51.578;7.268;2022-12-20T07:16:23;3.90;;;2.20;;
15271;SDS011;7737;51.578;7.268;2022-12-20T07:18:50;4.13;;;2.50;;
15271;SDS011;7737;51.578;7.268;2022-12-20T07:21:18;3.25;;;2.13;;
15271;SDS011;7737;51.578;7.268;2022-12-20T07:23:45;4.28;;;2.60;;
15271;SDS011;7737;51.578;7.268;2022-12-20T07:26:12;2.72;;;2.28;;
15271;SDS011;7737;51.578;7.268;2022-12-20T07:28:40;3.42;;;2.33;;
15271;SDS011;7737;51.578;7.268;2022-12-20T07:31:09;3.33;;;2.30;;
15271;SDS011;7737;51.578;7.268;2022-12-20T07:33:35;2.30;;;2.10;;
15271;SDS011;7737;51.578;7.268;2022-12-20T07:36:03;3.80;;;2.42;;
15271;SDS011;7737;51.578;7.268;2022-12-20T07:38:31;3.65;;;2.45;;
15271;SDS011;7737;51.578;7.268;2022-12-20T07:40:58;5.32;;;2.30;;
15271;SDS011;7737;51.578;7.268;2022-12-20T07:43:24;4.45;;;2.00;;
15271;SDS011;7737;51.578;7.268;2022-12-20T07:45:52;3.65;;;2.33;;
15271;SDS011;7737;51.578;7.268;2022-12-20T07:48:21;4.35;;;2.17;;
15271;SDS011;7737;51.578;7.268;2022-12-20T07:50:48;2.97;;;2.20;;
15271;SDS011;7737;51.578;7.268;2022-12-20T07:53:16;3.55;;;2.08;;
15271;SDS011;7737;51.578;7.268;2022-12-20T07:55:42;2.13;;;1.90;;
15271;SDS011;7737;51.578;7.268;2022-12-20T07:58:09;2.20;;;2.00;;
15271;SDS011;7737;51.578;7.268;2022-12-20T08:00:38;4.88;;;1.92;;
15271;SDS011;7737;51.578;7.268;2022-12-20T08:03:05;2.47;;;1.95;;
15271;SDS011;7737;51.578;7.268;2022-12-20T08:05:39;3.05;;;2.00;;
15271;SDS011;7737;51.578;7.268;2022-12-20T08:08:08;3.78;;;1.77;;
15271;SDS011;7737;51.578;7.268;2022-12-20T08:10:35;3.47;;;1.90;;
15271;SDS011;7737;51.578;7.268;2022-12-20T08:13:02;2.85;;;2.00;;
15271;SDS011;7737;51.578;7.268;2022-12-20T08:15:30;2.97;;;2.13;;
15271;SDS011;7737;51.578;7.268;2022-12-20T08:17:58;2.88;;;2.10;;
15271;SDS011;7737;51.578;7.268;2022-12-20T08:20:27;2.97;;;1.90;;
15271;SDS011;7737;51.578;7.268;2022-12-20T08:22:55;3.65;;;2.03;;
15271;SDS011;7737;51.578;7.268;2022-12-20T08:25:21;2.85;;;1.90;;
15271;SDS011;7737;51.578;7.268;2022-12-20T08:27:48;3.00;;;1.80;;
15271;SDS011;7737;51.578;7.268;2022-12-20T08:30:14;2.55;;;1.65;;
15271;SDS011;7737;51.578;7.268;2022-12-20T08:32:41;3.92;;;2.20;;
15271;SDS011;7737;51.578;7.268;2022-12-20T08:35:08;2.72;;;1.70;;
15271;SDS011;7737;51.578;7.268;2022-12-20T08:37:34;2.05;;;1.88;;
15271;SDS011;7737;51.578;7.268;2022-12-20T08:40:02;2.10;;;1.75;;
15271;SDS011;7737;51.578;7.268;2022-12-20T08:42:29;4.28;;;2.08;;
15271;SDS011;7737;51.578;7.268;2022-12-20T08:44:57;3.42;;;2.05;;
15271;SDS011;7737;51.578;7.268;2022-12-20T08:47:24;2.90;;;1.70;;
15271;SDS011;7737;51.578;7.268;2022-12-20T08:49:50;2.72;;;1.65;;
15271;SDS011;7737;51.578;7.268;2022-12-20T08:52:16;2.72;;;1.73;;
15271;SDS011;7737;51.578;7.268;2022-12-20T08:54:43;2.80;;;1.80;;
15271;SDS011;7737;51.578;7.268;2022-12-20T08:57:11;3.00;;;1.83;;
15271;SDS011;7737;51.578;7.268;2022-12-20T08:59:37;3.40;;;1.80;;
15271;SDS011;7737;51.578;7.268;2022-12-20T09:02:04;3.90;;;2.10;;
15271;SDS011;7737;51.578;7.268;2022-12-20T09:04:31;3.15;;;1.80;;
15271;SDS011;7737;51.578;7.268;2022-12-20T09:06:57;3.33;;;2.00;;
15271;SDS011;7737;51.578;7.268;2022-12-20T09:09:24;2.92;;;1.73;;
15271;SDS011;7737;51.578;7.268;2022-12-20T09:11:50;3.30;;;1.77;;
15271;SDS011;7737;51.578;7.268;2022-12-20T09:14:20;3.45;;;1.70;;
15271;SDS011;7737;51.578;7.268;2022-12-20T09:16:46;3.08;;;1.83;;
15271;SDS011;7737;51.578;7.268;2022-12-20T09:19:15;3.00;;;1.90;;
15271;SDS011;7737;51.578;7.268;2022-12-20T09:21:41;2.83;;;1.90;;
15271;SDS011;7737;51.578;7.268;2022-12-20T09:24:08;2.30;;;1.63;;
15271;SDS011;7737;51.578;7.268;2022-12-20T09:26:36;2.00;;;1.80;;
15271;SDS011;7737;51.578;7.268;2022-12-20T09:29:04;3.15;;;1.60;;
15271;SDS011;7737;51.578;7.268;2022-12-20T09:31:33;4.03;;;1.90;;
15271;SDS011;7737;51.578;7.268;2022-12-20T09:34:00;3.13;;;1.80;;
15271;SDS011;7737;51.578;7.268;2022-12-20T09:36:27;2.90;;;1.95;;
15271;SDS011;7737;51.578;7.268;2022-12-20T09:38:55;2.75;;;1.80;;
15271;SDS011;7737;51.578;7.268;2022-12-20T09:41:24;2.92;;;1.80;;
15271;SDS011;7737;51.578;7.268;2022-12-20T09:43:54;3.63;;;1.77;;
15271;SDS011;7737;51.578;7.268;2022-12-20T09:46:22;3.58;;;2.22;;
15271;SDS011;7737;51.578;7.268;2022-12-20T09:48:51;3.45;;;2.10;;
15271;SDS011;7737;51.578;7.268;2022-12-20T09:54:11;4.13;;;2.05;;
15271;SDS011;7737;51.578;7.268;2022-12-20T09:56:49;2.85;;;1.90;;
15271;SDS011;7737;51.578;7.268;2022-12-20T09:59:22;2.78;;;1.55;;
15271;SDS011;7737;51.578;7.268;2022-12-20T10:01:49;3.58;;;1.70;;
15271;SDS011;7737;51.578;7.268;2022-12-20T10:04:19;4.43;;;1.88;;
15271;SDS011;7737;51.578;7.268;2022-12-20T10:06:50;3.05;;;1.73;;
15271;SDS011;7737;51.578;7.268;2022-12-20T10:12:29;4.82;;;2.33;;
15271;SDS011;7737;51.578;7.268;2022-12-20T10:15:12;2.72;;;1.90;;
15271;SDS011;7737;51.578;7.268;2022-12-20T10:17:45;6.13;;;3.38;;
15271;SDS011;7737;51.578;7.268;2022-12-20T10:20:30;4.95;;;3.40;;
15271;SDS011;7737;51.578;7.268;2022-12-20T10:23:12;4.82;;;3.50;;
15271;SDS011;7737;51.578;7.268;2022-12-20T10:25:48;3.85;;;2.75;;
15271;SDS011;7737;51.578;7.268;2022-12-20T10:28:15;3.38;;;2.30;;
15271;SDS011;7737;51.578;7.268;2022-12-20T10:30:42;4.75;;;2.25;;
15271;SDS011;7737;51.578;7.268;2022-12-20T10:33:13;3.22;;;2.40;;
15271;SDS011;7737;51.578;7.268;2022-12-20T10:35:46;2.88;;;1.92;;
15271;SDS011;7737;51.578;7.268;2022-12-20T10:38:14;3.28;;;2.50;;
15271;SDS011;7737;51.578;7.268;2022-12-20T10:40:43;4.07;;;2.20;;
15271;SDS011;7737;51.578;7.268;2022-12-20T10:43:13;4.35;;;3.13;;
15271;SDS011;7737;51.578;7.268;2022-12-20T10:45:42;4.88;;;4.35;;
15271;SDS011;7737;51.578;7.268;2022-12-20T10:48:22;5.88;;;3.72;;
15271;SDS011;7737;51.578;7.268;2022-12-20T10:50:56;4.57;;;3.45;;
15271;SDS011;7737;51.578;7.268;2022-12-20T10:53:25;3.35;;;2.90;;
15271;SDS011;7737;51.578;7.268;2022-12-20T10:55:53;3.38;;;2.17;;
15271;SDS011;7737;51.578;7.268;2022-12-20T10:58:38;4.05;;;2.08;;
15271;SDS011;7737;51.578;7.268;2022-12-20T11:01:05;3.50;;;2.33;;
15271;SDS011;7737;51.578;7.268;2022-12-20T11:03:51;3.72;;;2.78;;
15271;SDS011;7737;51.578;7.268;2022-12-20T11:06:22;4.03;;;2.30;;
15271;SDS011;7737;51.578;7.268;2022-12-20T11:08:51;3.90;;;2.20;;
15271;SDS011;7737;51.578;7.268;2022-12-20T11:11:18;4.85;;;2.40;;
15271;SDS011;7737;51.578;7.268;2022-12-20T11:13:46;5.43;;;2.83;;
15271;SDS011;7737;51.578;7.268;2022-12-20T11:16:27;3.80;;;2.50;;
15271;SDS011;7737;51.578;7.268;2022-12-20T11:19:05;3.25;;;2.50;;
15271;SDS011;7737;51.578;7.268;2022-12-20T11:21:52;3.85;;;2.03;;
15271;SDS011;7737;51.578;7.268;2022-12-20T11:24:29;3.85;;;2.05;;
15271;SDS011;7737;51.578;7.268;2022-12-20T11:27:03;6.97;;;3.80;;
15271;SDS011;7737;51.578;7.268;2022-12-20T11:32:41;3.15;;;2.03;;
15271;SDS011;7737;51.578;7.268;2022-12-20T11:35:30;3.17;;;2.30;;
15271;SDS011;7737;51.578;7.268;2022-12-20T11:38:13;3.00;;;2.25;;
15271;SDS011;7737;51.578;7.268;2022-12-20T11:40:50;3.45;;;1.80;;
15271;SDS011;7737;51.578;7.268;2022-12-20T11:43:26;2.13;;;1.55;;
15271;SDS011;7737;51.578;7.268;2022-12-20T11:46:16;3.30;;;1.65;;
15271;SDS011;7737;51.578;7.268;2022-12-20T11:51:46;1.98;;;1.38;;
15271;SDS011;7737;51.578;7.268;2022-12-20T11:54:25;3.00;;;1.55;;
15271;SDS011;7737;51.578;7.268;2022-12-20T11:56:56;2.58;;;1.48;;
15271;SDS011;7737;51.578;7.268;2022-12-20T11:59:34;2.47;;;1.50;;
15271;SDS011;7737;51.578;7.268;2022-12-20T12:02:08;2.60;;;1.20;;
15271;SDS011;7737;51.578;7.268;2022-12-20T12:04:38;1.98;;;1.55;;
15271;SDS011;7737;51.578;7.268;2022-12-20T12:07:10;3.03;;;1.42;;
15271;SDS011;7737;51.578;7.268;2022-12-20T12:09:44;3.38;;;2.22;;
15271;SDS011;7737;51.578;7.268;2022-12-20T12:12:21;3.63;;;2.30;;
15271;SDS011;7737;51.578;7.268;2022-12-20T12:14:54;2.30;;;1.60;;
15271;SDS011;7737;51.578;7.268;2022-12-20T12:17:26;1.95;;;1.60;;
15271;SDS011;7737;51.578;7.268;2022-12-20T12:20:00;2.00;;;1.70;;
15271;SDS011;7737;51.578;7.268;2022-12-20T12:22:39;4.78;;;2.17;;
15271;SDS011;7737;51.578;7.268;2022-12-20T12:25:12;3.53;;;1.75;;
15271;SDS011;7737;51.578;7.268;2022-12-20T12:27:42;2.53;;;1.50;;
15271;SDS011;7737;51.578;7.268;2022-12-20T12:30:11;2.63;;;1.40;;
15271;SDS011;7737;51.578;7.268;2022-12-20T12:32:43;2.30;;;1.50;;
15271;SDS011;7737;51.578;7.268;2022-12-20T12:35:21;3.00;;;1.55;;
15271;SDS011;7737;51.578;7.268;2022-12-20T12:38:13;3.50;;;1.50;;
15271;SDS011;7737;51.578;7.268;2022-12-20T12:40:55;3.15;;;1.48;;
15271;SDS011;7737;51.578;7.268;2022-12-20T12:43:43;2.33;;;1.60;;
15271;SDS011;7737;51.578;7.268;2022-12-20T12:46:13;1.85;;;1.35;;
15271;SDS011;7737;51.578;7.268;2022-12-20T12:48:44;4.63;;;1.55;;
15271;SDS011;7737;51.578;7.268;2022-12-20T12:51:20;2.03;;;1.50;;
15271;SDS011;7737;51.578;7.268;2022-12-20T12:53:51;2.63;;;1.40;;
15271;SDS011;7737;51.578;7.268;2022-12-20T12:56:35;2.75;;;1.60;;
15271;SDS011;7737;51.578;7.268;2022-12-20T12:59:12;2.22;;;1.50;;
15271;SDS011;7737;51.578;7.268;2022-12-20T13:01:47;3.28;;;1.70;;
15271;SDS011;7737;51.578;7.268;2022-12-20T13:04:21;2.70;;;1.58;;
15271;SDS011;7737;51.578;7.268;2022-12-20T13:09:46;3.33;;;1.58;;
15271;SDS011;7737;51.578;7.268;2022-12-20T13:18:29;3.00;;;1.80;;
15271;SDS011;7737;51.578;7.268;2022-12-20T13:27:13;2.85;;;1.45;;
15271;SDS011;7737;51.578;7.268;2022-12-20T13:29:52;2.83;;;1.75;;
15271;SDS011;7737;51.578;7.268;2022-12-20T13:35:41;2.80;;;1.75;;
15271;SDS011;7737;51.578;7.268;2022-12-20T13:38:35;5.70;;;1.98;;
15271;SDS011;7737;51.578;7.268;2022-12-20T13:41:21;3.05;;;2.30;;
15271;SDS011;7737;51.578;7.268;2022-12-20T13:43:54;2.88;;;2.28;;
15271;SDS011;7737;51.578;7.268;2022-12-20T13:46:26;2.67;;;2.40;;
15271;SDS011;7737;51.578;7.268;2022-12-20T13:48:58;3.95;;;2.50;;
15271;SDS011;7737;51.578;7.268;2022-12-20T13:51:27;4.78;;;2.92;;
15271;SDS011;7737;51.578;7.268;2022-12-20T13:53:55;3.90;;;2.60;;
15271;SDS011;7737;51.578;7.268;2022-12-20T13:56:30;6.63;;;2.97;;
15271;SDS011;7737;51.578;7.268;2022-12-20T13:59:03;3.65;;;3.03;;
15271;SDS011;7737;51.578;7.268;2022-12-20T14:01:34;4.05;;;2.60;;
15271;SDS011;7737;51.578;7.268;2022-12-20T14:04:02;5.63;;;3.00;;
15271;SDS011;7737;51.578;7.268;2022-12-20T14:06:32;5.22;;;3.20;;
15271;SDS011;7737;51.578;7.268;2022-12-20T14:08:59;4.50;;;2.67;;
15271;SDS011;7737;51.578;7.268;2022-12-20T14:11:26;4.15;;;2.90;;
15271;SDS011;7737;51.578;7.268;2022-12-20T14:13:53;4.30;;;2.90;;
15271;SDS011;7737;51.578;7.268;2022-12-20T14:16:21;4.18;;;3.05;;
15271;SDS011;7737;51.578;7.268;2022-12-20T14:18:53;6.88;;;3.95;;
15271;SDS011;7737;51.578;7.268;2022-12-20T14:21:26;6.07;;;3.00;;
15271;SDS011;7737;51.578;7.268;2022-12-20T14:23:54;6.28;;;3.45;;
15271;SDS011;7737;51.578;7.268;2022-12-20T14:26:23;6.05;;;3.45;;
15271;SDS011;7737;51.578;7.268;2022-12-20T14:28:51;5.43;;;3.17;;
15271;SDS011;7737;51.578;7.268;2022-12-20T14:31:21;6.20;;;3.50;;
15271;SDS011;7737;51.578;7.268;2022-12-20T14:33:51;5.07;;;3.70;;
15271;SDS011;7737;51.578;7.268;2022-12-20T14:36:27;5.40;;;3.42;;
15271;SDS011;7737;51.578;7.268;2022-12-20T14:38:54;4.72;;;3.05;;
15271;SDS011;7737;51.578;7.268;2022-12-20T14:41:32;4.72;;;3.50;;
15271;SDS011;7737;51.578;7.268;2022-12-20T14:44:03;7.13;;;3.17;;
15271;SDS011;7737;51.578;7.268;2022-12-20T14:46:39;5.18;;;3.47;;
15271;SDS011;7737;51.578;7.268;2022-12-20T14:49:20;6.20;;;3.30;;
15271;SDS011;7737;51.578;7.268;2022-12-20T14:51:49;8.48;;;3.63;;
15271;SDS011;7737;51.578;7.268;2022-12-20T14:54:17;6.63;;;3.60;;
15271;SDS011;7737;51.578;7.268;2022-12-20T14:56:46;5.57;;;3.33;;
15271;SDS011;7737;51.578;7.268;2022-12-20T14:59:15;5.80;;;3.63;;
15271;SDS011;7737;51.578;7.268;2022-12-20T15:01:43;6.47;;;3.80;;
15271;SDS011;7737;51.578;7.268;2022-12-20T15:04:20;5.22;;;3.25;;
15271;SDS011;7737;51.578;7.268;2022-12-20T15:06:49;5.07;;;3.17;;
15271;SDS011;7737;51.578;7.268;2022-12-20T15:09:16;4.68;;;3.35;;
15271;SDS011;7737;51.578;7.268;2022-12-20T15:11:43;6.72;;;3.20;;
15271;SDS011;7737;51.578;7.268;2022-12-20T15:14:16;5.30;;;3.28;;
15271;SDS011;7737;51.578;7.268;2022-12-20T15:16:48;3.63;;;3.22;;
15271;SDS011;7737;51.578;7.268;2022-12-20T15:19:15;7.53;;;6.07;;
15271;SDS011;7737;51.578;7.268;2022-12-20T15:21:43;10.77;;;9.55;;
15271;SDS011;7737;51.578;7.268;2022-12-20T15:24:11;12.05;;;8.40;;
15271;SDS011;7737;51.578;7.268;2022-12-20T15:26:40;12.98;;;11.60;;
15271;SDS011;7737;51.578;7.268;2022-12-20T15:29:09;10.05;;;9.05;;
15271;SDS011;7737;51.578;7.268;2022-12-20T15:31:40;6.10;;;4.60;;
15271;SDS011;7737;51.578;7.268;2022-12-20T15:34:09;6.47;;;4.50;;
15271;SDS011;7737;51.578;7.268;2022-12-20T15:36:39;7.70;;;4.80;;
15271;SDS011;7737;51.578;7.268;2022-12-20T15:39:08;5.32;;;3.33;;
15271;SDS011;7737;51.578;7.268;2022-12-20T15:41:36;4.47;;;3.03;;
15271;SDS011;7737;51.578;7.268;2022-12-20T15:44:09;5.00;;;3.50;;
15271;SDS011;7737;51.578;7.268;2022-12-20T15:46:39;5.45;;;3.08;;
15271;SDS011;7737;51.578;7.268;2022-12-20T15:49:08;6.05;;;3.45;;
15271;SDS011;7737;51.578;7.268;2022-12-20T15:51:38;6.03;;;3.70;;
15271;SDS011;7737;51.578;7.268;2022-12-20T15:54:11;9.43;;;3.53;;